createdAt,value
2022-11-19T00:03:43.482Z,11.33
2022-11-19T00:09:06.472Z,11.29
2022-11-19T00:14:35.645Z,8.06
2022-11-19T00:20:02.681Z,11.38
2022-11-19T00:25:32.737Z,11.33
2022-11-19T00:30:59.268Z,11.10
2022-11-19T00:36:29.108Z,8.41
2022-11-19T00:41:52.856Z,9.15
2022-11-19T00:47:17.109Z,8.40
2022-11-19T00:52:43.620Z,8.23
2022-11-19T00:58:12.903Z,7.80
2022-11-19T01:03:48.226Z,9.03
2022-11-19T01:09:20.534Z,9.83
2022-11-19T01:14:51.772Z,8.52
2022-11-19T01:21:08.968Z,12.46
2022-11-19T01:26:29.532Z,10.86
2022-11-19T01:31:55.040Z,10.77
2022-11-19T01:37:22.432Z,12.21
2022-11-19T01:42:48.817Z,11.16
2022-11-19T01:48:15.175Z,9.76
2022-11-19T01:53:44.632Z,10.39
2022-11-19T01:59:09.111Z,10.75
2022-11-19T02:04:34.964Z,9.38
2022-11-19T02:10:11.069Z,10.70
2022-11-19T02:15:40.379Z,9.34
2022-11-19T02:21:07.367Z,11.62
2022-11-19T02:26:49.998Z,8.59
2022-11-19T02:32:55.543Z,8.33
2022-11-19T02:38:22.594Z,10.56
2022-11-19T02:43:57.883Z,13.42
2022-11-19T02:49:27.406Z,9.73
2022-11-19T02:54:54.983Z,10.00
2022-11-19T03:00:38.892Z,9.69
2022-11-19T03:06:06.181Z,10.50
2022-11-19T03:11:36.798Z,11.01
2022-11-19T03:17:04.234Z,7.94
2022-11-19T03:22:30.979Z,10.35
2022-11-19T03:27:59.370Z,9.16
2022-11-19T03:33:25.898Z,7.02
2022-11-19T03:38:54.340Z,9.13
2022-11-19T03:44:22.967Z,9.63
2022-11-19T03:49:49.828Z,10.10
2022-11-19T03:55:12.996Z,9.76
2022-11-19T04:00:43.424Z,8.67
2022-11-19T04:06:09.552Z,8.81
2022-11-19T04:11:42.295Z,6.94
2022-11-19T04:17:14.265Z,8.61
2022-11-19T04:22:36.990Z,6.32
2022-11-19T04:28:00.070Z,6.76
2022-11-19T04:33:28.657Z,4.60
2022-11-19T04:38:57.018Z,4.53
2022-11-19T04:44:24.813Z,4.43
2022-11-19T04:49:50.745Z,4.41
2022-11-19T04:55:19.758Z,4.49
2022-11-19T05:00:46.191Z,6.65
2022-11-19T05:06:10.835Z,3.35
2022-11-19T05:11:35.312Z,2.40
2022-11-19T05:16:58.537Z,1.81
2022-11-19T05:23:24.177Z,2.45
2022-11-19T05:28:46.295Z,2.29
2022-11-19T05:34:09.024Z,2.52
2022-11-19T05:39:35.489Z,2.46
2022-11-19T05:45:01.614Z,3.03
2022-11-19T05:50:26.792Z,3.03
2022-11-19T05:55:52.013Z,2.69
2022-11-19T06:01:29.895Z,2.37
2022-11-19T06:07:08.184Z,1.56
2022-11-19T06:12:42.567Z,2.41
2022-11-19T06:18:03.404Z,1.42
2022-11-19T06:23:26.858Z,2.45
2022-11-19T06:28:48.096Z,4.10
2022-11-19T06:34:09.286Z,1.47
2022-11-19T06:39:30.499Z,2.79
2022-11-19T06:44:51.563Z,2.01
2022-11-19T06:50:12.985Z,2.59
2022-11-19T06:55:40.200Z,1.81
2022-11-19T07:01:05.345Z,2.69
2022-11-19T07:06:29.561Z,3.83
2022-11-19T07:11:53.612Z,2.64
2022-11-19T07:17:16.842Z,3.67
2022-11-19T07:22:41.781Z,2.41
2022-11-19T07:28:09.204Z,3.80
2022-11-19T07:33:35.674Z,3.80
2022-11-19T07:38:58.943Z,4.07
2022-11-19T07:44:23.039Z,3.02
2022-11-19T07:49:49.341Z,2.42
2022-11-19T07:55:17.284Z,2.69
2022-11-19T08:00:44.951Z,4.16
2022-11-19T08:06:14.840Z,3.78
2022-11-19T08:11:38.940Z,2.65
2022-11-19T08:17:00.759Z,3.25
2022-11-19T08:22:22.058Z,3.21
2022-11-19T08:27:48.883Z,3.79
2022-11-19T08:33:14.648Z,2.75
2022-11-19T08:38:39.211Z,2.60
2022-11-19T08:44:04.855Z,3.20
2022-11-19T08:49:28.437Z,3.55
2022-11-19T08:54:58.765Z,4.21
2022-11-19T09:00:24.014Z,3.19
2022-11-19T09:05:49.350Z,3.98
2022-11-19T09:11:20.446Z,3.54
2022-11-19T09:16:42.087Z,2.51
2022-11-19T09:22:05.643Z,5.82
2022-11-19T09:27:28.045Z,3.28
2022-11-19T09:32:50.989Z,4.82
2022-11-19T09:38:19.475Z,4.50
2022-11-19T09:43:44.970Z,4.37
2022-11-19T09:49:10.042Z,5.20
2022-11-19T09:54:41.372Z,4.54
2022-11-19T10:00:04.275Z,6.14
2022-11-19T10:05:33.107Z,3.46
2022-11-19T10:10:58.137Z,2.30
2022-11-19T10:16:22.937Z,1.46
2022-11-19T10:21:51.820Z,1.31
2022-11-19T10:27:18.082Z,2.01
2022-11-19T10:32:42.171Z,1.39
2022-11-19T10:38:10.316Z,1.87
2022-11-19T10:43:36.649Z,1.59
2022-11-19T10:49:01.820Z,3.46
2022-11-19T10:54:28.291Z,3.87
2022-11-19T10:59:52.921Z,3.21
2022-11-19T11:05:19.047Z,4.33
2022-11-19T11:10:46.359Z,4.03
2022-11-19T11:16:09.345Z,3.26
2022-11-19T11:21:39.317Z,3.81
2022-11-19T11:27:01.696Z,4.14
2022-11-19T11:32:40.491Z,4.79
2022-11-19T11:38:04.644Z,10.22
2022-11-19T11:43:29.546Z,5.24
2022-11-19T11:48:53.210Z,4.85
2022-11-19T11:54:19.908Z,6.82
2022-11-19T11:59:44.536Z,5.87
2022-11-19T12:05:10.717Z,6.52
2022-11-19T12:10:33.144Z,8.08
2022-11-19T12:15:59.039Z,6.68
2022-11-19T12:21:26.115Z,7.85
2022-11-19T12:26:53.821Z,7.21
2022-11-19T12:32:21.063Z,8.12
2022-11-19T12:37:51.310Z,9.60
2022-11-19T12:43:22.982Z,7.98
2022-11-19T12:49:05.159Z,8.05
2022-11-19T12:54:56.781Z,8.15
2022-11-19T13:00:21.147Z,6.43
2022-11-19T13:05:43.179Z,8.19
2022-11-19T13:11:10.010Z,9.41
2022-11-19T13:16:33.808Z,8.28
2022-11-19T13:21:58.228Z,8.94
2022-11-19T13:27:25.458Z,9.89
2022-11-19T13:32:46.209Z,9.08
2022-11-19T13:38:09.223Z,8.27
2022-11-19T13:43:32.791Z,8.45
2022-11-19T13:48:55.076Z,10.14
2022-11-19T13:54:20.223Z,7.27
2022-11-19T13:59:46.135Z,6.21
2022-11-19T14:05:07.421Z,6.08
2022-11-19T14:10:45.015Z,6.06
2022-11-19T14:16:12.305Z,5.13
2022-11-19T14:21:41.104Z,5.62
2022-11-19T14:27:07.613Z,5.44
2022-11-19T14:32:41.612Z,5.28
2022-11-19T14:38:07.458Z,5.39
2022-11-19T14:43:50.892Z,5.86
2022-11-19T14:49:50.579Z,4.86
2022-11-19T14:55:16.409Z,4.71
2022-11-19T15:00:41.171Z,6.17
2022-11-19T15:06:05.676Z,5.53
2022-11-19T15:11:29.813Z,4.75
2022-11-19T15:17:19.807Z,4.53
2022-11-19T15:22:45.620Z,4.66
2022-11-19T15:28:15.408Z,4.67
2022-11-19T15:33:47.940Z,5.30
2022-11-19T15:39:24.774Z,4.42
2022-11-19T15:44:48.438Z,5.13
2022-11-19T15:50:15.893Z,5.15
2022-11-19T15:55:38.213Z,6.83
2022-11-19T16:01:07.715Z,4.91
2022-11-19T16:06:34.671Z,5.10
2022-11-19T16:12:02.243Z,5.74
2022-11-19T16:17:38.241Z,4.76
2022-11-19T16:23:01.610Z,4.35
2022-11-19T16:28:27.787Z,5.97
2022-11-19T16:33:52.051Z,7.20
2022-11-19T16:39:17.986Z,7.32
2022-11-19T16:44:41.736Z,8.19
2022-11-19T16:50:08.843Z,8.91
2022-11-19T16:55:49.223Z,7.98
2022-11-19T17:01:28.011Z,9.52
2022-11-19T17:06:50.028Z,7.86
2022-11-19T17:12:18.858Z,9.06
2022-11-19T17:17:46.785Z,9.52
2022-11-19T17:23:23.071Z,11.93
2022-11-19T17:28:48.095Z,11.13
2022-11-19T17:34:13.267Z,9.64
2022-11-19T17:39:42.307Z,8.51
2022-11-19T17:46:05.023Z,10.36
2022-11-19T17:51:28.358Z,13.36
2022-11-19T17:56:57.304Z,12.30
2022-11-19T18:02:23.175Z,11.06
2022-11-19T18:07:49.910Z,10.68
2022-11-19T18:13:22.169Z,10.72
2022-11-19T18:18:47.838Z,10.18
2022-11-19T18:24:14.638Z,9.95
2022-11-19T18:29:38.573Z,10.95
2022-11-19T18:35:02.187Z,11.89
2022-11-19T18:40:30.469Z,12.08
2022-11-19T18:45:56.365Z,11.47
2022-11-19T18:51:20.004Z,13.90
2022-11-19T18:56:45.519Z,11.77
2022-11-19T19:02:09.948Z,13.04
2022-11-19T19:07:32.698Z,12.42
2022-11-19T19:12:56.423Z,13.29
2022-11-19T19:18:17.828Z,13.85
2022-11-19T19:23:43.065Z,14.60
2022-11-19T19:29:11.858Z,16.03
2022-11-19T19:34:33.488Z,15.20
2022-11-19T19:39:56.452Z,13.83
2022-11-19T19:45:19.782Z,16.08
2022-11-19T19:50:43.407Z,14.32
2022-11-19T19:56:11.551Z,13.56
2022-11-19T20:01:33.728Z,13.90
2022-11-19T20:06:59.752Z,15.65
2022-11-19T20:12:23.428Z,17.81
2022-11-19T20:17:49.089Z,15.87
2022-11-19T20:23:11.398Z,17.02
2022-11-19T20:28:35.888Z,15.49
2022-11-19T20:34:00.570Z,15.54
2022-11-19T20:39:22.630Z,14.29
2022-11-19T20:44:48.903Z,14.96
2022-11-19T20:50:19.022Z,16.30
2022-11-19T20:56:03.944Z,16.60
2022-11-19T21:01:08.516Z,16.24
2022-11-19T21:06:34.145Z,13.89
2022-11-19T21:12:56.721Z,18.18
2022-11-19T21:18:22.102Z,15.31
2022-11-19T21:23:44.445Z,17.70
2022-11-19T21:29:09.788Z,15.90
2022-11-19T21:34:33.772Z,17.67
2022-11-19T21:39:58.912Z,13.83
2022-11-19T21:45:25.157Z,15.41
2022-11-19T21:50:50.704Z,16.38
2022-11-19T21:56:19.982Z,14.11
2022-11-19T22:01:54.566Z,16.43
2022-11-19T22:07:18.413Z,14.65
2022-11-19T22:12:47.606Z,15.75
2022-11-19T22:18:13.932Z,15.03
2022-11-19T22:23:44.091Z,15.67
2022-11-19T22:29:10.456Z,16.21
2022-11-19T22:34:38.790Z,17.68
2022-11-19T22:40:05.928Z,15.86
2022-11-19T22:45:35.158Z,15.99
2022-11-19T22:51:03.620Z,16.54
2022-11-19T22:56:31.871Z,18.28
2022-11-19T23:01:58.106Z,17.89
2022-11-19T23:07:24.237Z,17.40
2022-11-19T23:12:47.592Z,17.25
2022-11-19T23:18:13.019Z,18.22
2022-11-19T23:23:39.478Z,18.78
2022-11-19T23:29:02.460Z,18.64
2022-11-19T23:34:24.626Z,19.73
2022-11-19T23:39:51.957Z,19.30
2022-11-19T23:45:17.783Z,19.45
2022-11-19T23:50:45.345Z,22.07
2022-11-19T23:56:12.501Z,19.76
